Time;durP1;ratioP1;P1;durP2;ratioP2;P2;SDS_P1;SDS_P2;PMS_P1;PMS_P2;Temp;Humidity;BMP_temperature;BMP_pressure;BME280_temperature;BME280_humidity;BME280_pressure;Samples;Min_cycle;Max_cycle;Signal;HPM_P1;HPM_P2
2022/01/14 00:01:36;;;;;;;0.63;0.63;;;-1.00;99.90;;;-1.58;100.00;102842.59;4889546;29;20211;-81
2022/01/14 00:04:04;;;;;;;0.60;0.60;;;-1.00;99.90;;;-1.62;100.00;102844.00;4905674;29;20239;-81
2022/01/14 00:06:33;;;;;;;0.60;0.60;;;-1.10;99.90;;;-1.57;100.00;102840.94;4903876;29;20232;-81
2022/01/14 00:09:06;;;;;;;0.80;0.80;;;-1.10;99.90;;;-1.61;100.00;102839.72;4905936;29;20235;-82
2022/01/14 00:11:52;;;;;;;0.70;0.70;;;-1.10;99.90;;;-1.57;100.00;102836.66;4898725;29;20239;-81
2022/01/14 00:14:35;;;;;;;0.60;0.60;;;-1.10;99.90;;;-1.63;100.00;102834.38;4887855;29;20246;-81
2022/01/14 00:17:07;;;;;;;1.35;1.25;;;-1.10;99.90;;;-1.54;100.00;102826.56;4893185;29;20583;-81
2022/01/14 00:19:36;;;;;;;0.77;0.73;;;-1.10;99.90;;;-1.53;100.00;102828.38;4874383;29;20215;-82
2022/01/14 00:22:14;;;;;;;0.70;0.70;;;-1.10;99.90;;;-1.44;100.00;102831.88;4902275;29;20211;-81
2022/01/14 00:33:09;;;;;;;0.70;0.70;;;-1.00;99.90;;;-1.48;100.00;102819.38;4893235;29;20235;-81
2022/01/14 00:35:42;;;;;;;0.70;0.70;;;-1.00;99.90;;;-1.62;100.00;102809.34;4890767;29;20230;-81
2022/01/14 00:38:12;;;;;;;0.80;0.80;;;-1.10;99.90;;;-1.61;100.00;102811.19;4889651;29;20215;-82
2022/01/14 00:40:41;;;;;;;0.60;0.60;;;-1.10;99.90;;;-1.56;100.00;102816.81;4875187;29;20585;-81
2022/01/14 00:43:10;;;;;;;0.80;0.80;;;-0.50;99.90;;;-1.64;100.00;102810.88;4870034;29;20224;-82
2022/01/14 00:45:39;;;;;;;0.90;0.90;;;-1.10;99.90;;;-1.65;100.00;102806.47;4889504;29;20215;-81
2022/01/14 00:48:07;;;;;;;0.70;0.70;;;-1.10;99.90;;;-1.65;100.00;102803.88;4891259;29;20234;-81
2022/01/14 00:50:40;;;;;;;0.65;0.65;;;-1.10;99.90;;;-1.65;100.00;102804.78;4889167;29;20211;-81
2022/01/14 00:53:08;;;;;;;0.65;0.65;;;-1.10;99.90;;;-1.72;100.00;102802.38;4875687;29;20238;-81
2022/01/14 00:56:05;;;;;;;1.00;0.90;;;-1.20;99.90;;;-1.54;100.00;102817.88;4869871;29;20218;-82
2022/01/14 01:01:13;;;;;;;0.70;0.70;;;-1.20;99.90;;;-1.59;100.00;102814.84;4890308;29;20207;-82
2022/01/14 01:03:41;;;;;;;0.60;0.60;;;-1.10;99.90;;;-1.64;100.00;102797.91;4895213;29;20610;-81
2022/01/14 01:06:11;;;;;;;0.70;0.70;;;-1.10;99.90;;;-1.79;100.00;102792.19;4901234;29;20587;-82
2022/01/14 01:08:39;;;;;;;0.52;0.52;;;-1.20;99.90;;;-1.77;100.00;102798.41;4911355;29;20219;-81
2022/01/14 01:11:10;;;;;;;0.60;0.60;;;-1.30;99.90;;;-1.61;100.00;102816.38;4905622;29;20223;-82
2022/01/14 01:13:43;;;;;;;0.80;0.80;;;-1.20;99.90;;;-1.60;100.00;102810.41;4878910;29;20598;-81
2022/01/14 01:16:11;;;;;;;0.47;0.47;;;-1.20;99.90;;;-1.51;100.00;102818.16;4901690;29;20218;-82
2022/01/14 01:18:39;;;;;;;0.60;0.60;;;-1.10;99.90;;;-1.56;100.00;102814.22;4902354;29;20215;-82
2022/01/14 01:21:07;;;;;;;0.30;0.30;;;-1.10;99.90;;;-1.50;100.00;102818.31;4904197;29;20219;-81
2022/01/14 01:23:35;;;;;;;0.55;0.55;;;-1.00;99.90;;;-1.60;100.00;102813.00;4894555;29;20231;-81
2022/01/14 01:26:14;;;;;;;0.50;0.50;;;-1.10;99.90;;;-1.61;100.00;102808.59;4893153;29;20215;-82
2022/01/14 01:28:58;;;;;;;0.60;0.60;;;-1.10;99.90;;;-1.61;100.00;102806.91;4878551;29;20228;-81
2022/01/14 01:31:35;;;;;;;0.50;0.50;;;-1.10;99.90;;;-1.71;100.00;102796.41;4894015;29;20207;-81
2022/01/14 01:34:10;;;;;;;0.50;0.50;;;-1.10;99.90;;;-1.63;100.00;102807.53;4895757;29;20238;-82
2022/01/14 01:36:42;;;;;;;0.30;0.30;;;-1.20;99.90;;;-1.67;100.00;102806.31;4896648;29;20203;-81
2022/01/14 01:39:14;;;;;;;0.70;0.70;;;-1.20;99.90;;;-1.76;100.00;102797.66;4893479;29;20211;-82
2022/01/14 01:41:46;;;;;;;1.95;1.85;;;-1.20;99.90;;;-1.75;100.00;102795.97;4891364;29;20214;-82
2022/01/14 01:44:17;;;;;;;1.15;1.02;;;-1.20;99.90;;;-1.71;100.00;102811.97;4900712;29;20262;-82
2022/01/14 01:46:47;;;;;;;0.52;0.52;;;-1.20;99.90;;;-1.80;100.00;102803.31;4890770;29;20215;-81
2022/01/14 01:49:19;;;;;;;0.40;0.40;;;-1.20;99.90;;;-1.71;100.00;102805.88;4895074;29;20234;-82
2022/01/14 01:51:50;;;;;;;0.50;0.50;;;-1.20;99.90;;;-1.84;100.00;102790.81;4884386;29;20215;-81
2022/01/14 01:54:21;;;;;;;0.50;0.50;;;-1.20;99.90;;;-1.78;100.00;102799.19;4896297;29;20234;-82
2022/01/14 01:56:49;;;;;;;0.50;0.50;;;-1.30;99.90;;;-1.66;100.00;102808.16;4906283;29;20218;-82
2022/01/14 01:59:20;;;;;;;0.50;0.50;;;-1.20;99.90;;;-1.72;100.00;102801.44;4900408;29;20581;-81
2022/01/14 02:01:49;;;;;;;0.50;0.50;;;-1.20;99.90;;;-1.78;100.00;102799.19;4895481;29;20208;-82
2022/01/14 02:04:18;;;;;;;1.42;1.42;;;-1.20;99.90;;;-1.69;100.00;102813.03;4892316;29;20239;-82
2022/01/14 02:06:47;;;;;;;0.47;0.47;;;-1.20;99.90;;;-1.73;100.00;102803.13;4873456;29;20694;-81
2022/01/14 02:09:15;;;;;;;0.40;0.40;;;-1.30;99.90;;;-1.84;100.00;102785.63;4894731;29;20243;-81
2022/01/14 02:11:43;;;;;;;0.63;0.63;;;-1.30;99.90;;;-1.84;100.00;102785.63;4892160;29;20273;-81
2022/01/14 02:14:40;;;;;;;0.40;0.40;;;-1.30;99.90;;;-1.86;100.00;102786.25;4896020;29;20239;-82
2022/01/14 02:22:57;;;;;;;0.75;0.70;;;-1.30;99.90;;;-1.82;100.00;102778.91;4885116;29;20219;-82
2022/01/14 02:25:29;;;;;;;0.40;0.40;;;-1.30;99.90;;;-1.78;100.00;102774.94;4891703;29;20215;-81
2022/01/14 02:28:05;;;;;;;0.50;0.50;;;-1.30;99.90;;;-1.71;100.00;102785.13;4900731;29;20235;-81
2022/01/14 02:30:38;;;;;;;0.40;0.40;;;-1.30;99.90;;;-1.77;100.00;102775.06;4896858;29;20599;-81
2022/01/14 02:33:08;;;;;;;0.45;0.45;;;-1.20;99.90;;;-1.81;100.00;102760.00;4884050;29;20483;-81
2022/01/14 02:35:39;;;;;;;0.40;0.40;;;-1.20;99.90;;;-1.84;100.00;102757.09;4898197;29;20950;-81
2022/01/14 02:38:10;;;;;;;0.30;0.30;;;-1.20;99.90;;;-1.78;100.00;102764.56;4902323;29;20227;-81
2022/01/14 02:40:40;;;;;;;0.50;0.50;;;-1.20;99.90;;;-1.74;100.00;102769.25;4881705;29;20225;-82
2022/01/14 02:43:13;;;;;;;0.60;0.60;;;-1.20;99.90;;;-1.84;100.00;102754.50;4906422;29;20239;-81
2022/01/14 02:45:48;;;;;;;0.60;0.60;;;-1.20;99.90;;;-1.75;100.00;102759.66;4907711;29;20215;-81
2022/01/14 02:48:21;;;;;;;0.40;0.40;;;-1.20;99.90;;;-1.88;100.00;102744.59;4901617;29;20296;-81
2022/01/14 02:51:11;;;;;;;0.50;0.50;;;-1.30;99.90;;;-1.92;100.00;102734.72;4870634;29;20231;-82
2022/01/14 02:53:44;;;;;;;0.45;0.45;;;-1.30;99.90;;;-1.85;100.00;102744.00;4897880;29;20235;-81
2022/01/14 02:56:31;;;;;;;0.30;0.30;;;-1.30;99.90;;;-1.90;100.00;102735.75;4885006;29;20211;-82
2022/01/14 02:59:01;;;;;;;0.43;0.43;;;-1.30;99.90;;;-1.79;100.00;102745.47;4893026;29;20214;-81
2022/01/14 03:01:30;;;;;;;0.43;0.43;;;-1.30;99.90;;;-1.85;100.00;102736.22;4880397;29;20212;-82
2022/01/14 03:04:01;;;;;;;0.60;0.60;;;-1.30;99.90;;;-1.85;100.00;102736.22;4894826;29;20235;-81
2022/01/14 03:06:29;;;;;;;0.40;0.40;;;-1.30;99.90;;;-1.96;100.00;102733.50;4877104;29;20207;-82
2022/01/14 03:08:58;;;;;;;0.47;0.47;;;-1.40;99.90;;;-1.90;100.00;102740.97;4879800;29;20675;-81
2022/01/14 03:11:40;;;;;;;0.40;0.40;;;-1.40;99.90;;;-2.00;100.00;102733.06;4891146;29;20215;-81
2022/01/14 03:14:10;;;;;;;0.40;0.40;;;-1.40;99.90;;;-1.99;100.00;102732.28;4908102;29;20238;-81
2022/01/14 03:16:41;;;;;;;0.40;0.40;;;-1.30;99.90;;;-2.11;100.00;102723.34;4886891;29;20218;-81
2022/01/14 03:19:19;;;;;;;0.40;0.40;;;-1.40;99.90;;;-2.08;100.00;102734.00;4906427;29;20210;-82
2022/01/14 03:21:50;;;;;;;0.47;0.47;;;-1.40;99.90;;;-2.11;100.00;102729.44;4907406;29;20212;-81
2022/01/14 03:24:23;;;;;;;0.40;0.40;;;-1.40;99.90;;;-2.03;100.00;102736.28;4894846;29;20235;-82
2022/01/14 03:26:52;;;;;;;0.30;0.30;;;-1.40;99.90;;;-2.02;100.00;102739.78;4899360;29;20211;-81
2022/01/14 03:29:20;;;;;;;0.40;0.40;;;-1.40;99.90;;;-2.18;100.00;102724.44;4904521;29;20206;-81
2022/01/14 03:31:48;;;;;;;0.40;0.40;;;-1.50;99.90;;;-2.07;100.00;102744.53;4894024;29;20227;-81
2022/01/14 03:34:16;;;;;;;0.40;0.40;;;-1.60;99.90;;;-2.24;100.00;102721.25;4872965;29;20701;-81
2022/01/14 03:36:45;;;;;;;0.50;0.50;;;-1.60;99.90;;;-2.33;100.00;102716.09;4877996;29;20211;-81
2022/01/14 03:39:17;;;;;;;0.50;0.50;;;-1.70;99.90;;;-2.19;100.00;102727.78;4882241;29;20208;-82
2022/01/14 03:41:46;;;;;;;0.50;0.50;;;-1.70;99.90;;;-2.21;100.00;102725.81;4894454;29;20207;-82
2022/01/14 03:44:16;;;;;;;0.40;0.40;;;-1.70;99.90;;;-2.27;100.00;102719.28;4897442;29;20227;-82
2022/01/14 03:46:44;;;;;;;0.30;0.30;;;-1.70;99.90;;;-2.18;100.00;102733.88;4904296;29;20212;-82
2022/01/14 03:49:13;;;;;;;0.40;0.40;;;-1.70;99.90;;;-2.11;100.00;102739.81;4904563;29;20212;-81
2022/01/14 03:51:44;;;;;;;0.50;0.50;;;-1.60;99.90;;;-2.21;100.00;102725.81;4893672;29;20242;-82
2022/01/14 03:54:12;;;;;;;0.40;0.40;;;-1.60;99.90;;;-2.12;100.00;102740.56;4894057;29;20276;-82
2022/01/14 03:56:40;;;;;;;0.50;0.50;;;-1.60;99.90;;;-2.27;100.00;102724.47;4879407;29;20207;-82
2022/01/14 03:59:08;;;;;;;0.55;0.55;;;-1.70;99.90;;;-2.18;100.00;102734.81;4893927;29;20406;-81
2022/01/14 04:01:36;;;;;;;0.40;0.40;;;-1.70;99.90;;;-1.98;100.00;102763.56;4897411;29;20200;-82
2022/01/14 04:04:04;;;;;;;0.30;0.30;;;-1.60;99.90;;;-2.11;100.00;102752.78;4908888;29;20243;-81
2022/01/14 04:06:32;;;;;;;0.40;0.40;;;-1.60;99.90;;;-2.06;100.00;102761.91;4880014;29;20217;-82
2022/01/14 04:09:00;;;;;;;0.40;0.40;;;-1.60;99.90;;;-2.23;100.00;102746.41;4908683;29;20215;-82
2022/01/14 04:11:30;;;;;;;0.47;0.47;;;-1.60;99.90;;;-2.11;100.00;102746.69;4888801;29;20234;-82
2022/01/14 04:15:36;;;;;;;0.45;0.45;;;-1.60;99.90;;;-2.14;100.00;102744.69;4888213;29;20239;-81
2022/01/14 04:16:48;;;;;;;0.40;0.40;;;-1.60;99.90;;;-2.13;100.00;102748.22;4908941;29;20204;-81
2022/01/14 04:19:16;;;;;;;0.45;0.45;;;-1.60;99.90;;;-2.14;100.00;102744.69;4897756;29;20222;-82
2022/01/14 04:21:45;;;;;;;0.40;0.40;;;-1.60;99.90;;;-2.02;100.00;102760.53;4875328;29;20214;-81
2022/01/14 04:24:12;;;;;;;0.35;0.35;;;-1.60;99.90;;;-2.29;100.00;102738.94;4893431;29;20242;-82
2022/01/14 04:26:41;;;;;;;0.55;0.55;;;-1.60;99.90;;;-2.26;100.00;102734.06;4892979;29;20234;-82
2022/01/14 04:29:09;;;;;;;3.65;3.30;;;-1.60;99.90;;;-2.32;100.00;102727.38;4894600;29;20222;-81
2022/01/14 04:31:37;;;;;;;0.50;0.50;;;-1.70;99.90;;;-2.33;100.00;102735.91;4893886;29;20252;-82
2022/01/14 04:34:05;;;;;;;0.57;0.57;;;-1.80;99.90;;;-2.21;100.00;102742.28;4915051;23;20226;-78
2022/01/14 04:36:33;;;;;;;0.40;0.40;;;-1.80;99.90;;;-2.43;100.00;102715.97;4907687;29;20211;-79
2022/01/14 04:39:03;;;;;;;0.50;0.50;;;-1.70;99.90;;;-2.33;100.00;102723.88;4877540;29;20211;-79
2022/01/14 04:41:31;;;;;;;0.40;0.40;;;-1.80;99.90;;;-2.34;100.00;102728.91;4914717;29;20215;-78
2022/01/14 04:43:59;;;;;;;0.55;0.55;;;-1.80;99.90;;;-2.25;100.00;102732.38;4902717;29;20231;-79
2022/01/14 04:48:56;;;;;;;0.30;0.30;;;-1.70;99.90;;;-2.35;100.00;102727.06;4898135;29;20218;-79
2022/01/14 04:51:50;;;;;;;0.32;0.32;;;-1.70;99.90;;;-2.27;100.00;102732.22;4918446;29;20253;-78
2022/01/14 04:54:18;;;;;;;0.40;0.40;;;-1.70;99.90;;;-2.33;100.00;102725.53;4899660;29;20728;-79
2022/01/14 04:56:46;;;;;;;0.30;0.30;;;-1.70;99.90;;;-2.35;100.00;102727.06;4928317;29;20210;-79
2022/01/14 04:59:14;;;;;;;0.30;0.30;;;-1.80;99.90;;;-2.28;100.00;102727.81;4891298;29;20211;-79
2022/01/14 05:01:42;;;;;;;0.30;0.30;;;-1.80;99.90;;;-2.34;100.00;102718.53;4918036;29;20218;-79
2022/01/14 05:04:10;;;;;;;0.30;0.30;;;-1.80;99.90;;;-2.34;100.00;102719.44;4897690;29;20242;-79
2022/01/14 05:06:44;;;;;;;0.20;0.20;;;-1.80;99.90;;;-2.38;100.00;102706.97;4916262;29;20227;-79
2022/01/14 05:09:22;;;;;;;0.30;0.30;;;-1.80;99.90;;;-2.32;100.00;102717.91;4884387;29;20211;-78
2022/01/14 05:11:57;;;;;;;0.30;0.30;;;-1.80;99.90;;;-2.30;100.00;102720.66;4881488;29;20222;-79
2022/01/14 05:14:25;;;;;;;0.30;0.30;;;-1.70;99.90;;;-2.10;100.00;102731.28;4916179;29;20230;-79
2022/01/14 05:16:53;;;;;;;0.40;0.40;;;-1.70;99.90;;;-2.29;100.00;102717.31;4899612;29;20208;-79
2022/01/14 05:19:21;;;;;;;0.28;0.28;;;-1.60;99.90;;;-2.31;100.00;102721.41;4878629;29;20669;-79
2022/01/14 05:21:49;;;;;;;0.22;0.22;;;-1.70;99.90;;;-2.24;100.00;102726.44;4894466;29;20215;-79
2022/01/14 05:24:16;;;;;;;0.38;0.38;;;-1.60;99.90;;;-2.28;100.00;102727.81;4934267;29;20222;-79
2022/01/14 05:26:44;;;;;;;0.30;0.30;;;-1.70;99.90;;;-2.36;100.00;102720.97;4909071;29;20203;-79
2022/01/14 05:29:12;;;;;;;0.25;0.25;;;-1.70;99.90;;;-2.23;100.00;102735.13;4918720;29;20215;-79
2022/01/14 05:31:50;;;;;;;0.40;0.40;;;-1.70;99.90;;;-2.27;100.00;102733.91;4911122;29;20251;-79
2022/01/14 05:34:19;;;;;;;0.40;0.40;;;-1.70;99.90;;;-2.38;100.00;102722.50;4914148;29;20231;-80
2022/01/14 05:36:47;;;;;;;0.50;0.50;;;-1.70;99.90;;;-2.55;100.00;102696.66;4911261;29;20200;-79
2022/01/14 05:39:15;;;;;;;0.40;0.40;;;-1.70;99.90;;;-2.39;100.00;102710.31;4920098;28;20203;-79
2022/01/14 05:41:43;;;;;;;0.40;0.40;;;-1.80;99.90;;;-2.50;100.00;102702.28;4921039;29;20207;-79
2022/01/14 05:44:12;;;;;;;0.50;0.50;;;-1.80;99.90;;;-2.43;100.00;102705.59;4898086;29;20235;-79
2022/01/14 05:46:40;;;;;;;0.70;0.70;;;-1.80;99.90;;;-2.47;100.00;102698.31;4888498;29;20211;-79
2022/01/14 05:49:08;;;;;;;0.50;0.50;;;-1.80;99.90;;;-2.61;100.00;102691.75;4921270;28;20207;-79
2022/01/14 05:51:36;;;;;;;0.50;0.50;;;-1.80;99.90;;;-2.61;100.00;102696.00;4923586;29;20221;-79
2022/01/14 05:54:04;;;;;;;0.50;0.50;;;-1.90;99.90;;;-2.60;100.00;102697.88;4916005;29;20226;-79
2022/01/14 05:56:32;;;;;;;0.30;0.30;;;-1.90;99.90;;;-2.52;100.00;102703.78;4886398;29;20211;-79
2022/01/14 05:59:00;;;;;;;0.55;0.55;;;-1.90;99.90;;;-2.52;100.00;102709.91;4889117;29;20210;-79
2022/01/14 06:01:30;;;;;;;0.60;0.60;;;-1.90;99.90;;;-2.57;100.00;102695.56;4912524;29;20211;-79
2022/01/14 06:04:00;;;;;;;0.70;0.70;;;-1.90;99.90;;;-2.71;100.00;102683.84;4911459;29;20254;-79
2022/01/14 06:06:29;;;;;;;0.50;0.50;;;-2.00;99.90;;;-2.69;100.00;102689.16;4910848;29;20226;-78
2022/01/14 06:08:57;;;;;;;2.05;1.95;;;-2.10;99.90;;;-2.69;100.00;102690.06;4925040;28;20211;-79
2022/01/14 06:11:26;;;;;;;0.60;0.60;;;-2.10;99.90;;;-2.65;100.00;102699.06;4898246;29;20248;-80
2022/01/14 06:13:54;;;;;;;0.55;0.55;;;-2.10;99.90;;;-2.54;100.00;102706.25;4915417;29;20639;-78
2022/01/14 06:16:23;;;;;;;0.50;0.50;;;-2.10;99.90;;;-2.71;100.00;102698.47;4882915;29;20248;-78
2022/01/14 06:18:51;;;;;;;0.60;0.60;;;-2.00;99.90;;;-2.61;100.00;102706.38;4898395;29;20219;-78
2022/01/14 06:21:19;;;;;;;0.60;0.60;;;-2.00;99.90;;;-2.70;100.00;102697.69;4895849;29;20222;-78
2022/01/14 06:23:47;;;;;;;0.60;0.60;;;-2.10;99.90;;;-2.73;100.00;102700.00;4917086;29;20230;-78
2022/01/14 06:26:23;;;;;;;0.70;0.70;;;-2.10;99.90;;;-2.69;100.00;102705.63;4881312;29;20243;-78
2022/01/14 06:28:51;;;;;;;0.60;0.60;;;-2.10;99.90;;;-2.79;100.00;102701.97;4917185;29;20233;-78
2022/01/14 06:31:20;;;;;;;0.40;0.40;;;-2.10;99.90;;;-2.82;100.00;102699.09;4902002;29;20227;-78
2022/01/14 06:33:48;;;;;;;0.50;0.50;;;-2.20;99.90;;;-2.69;100.00;102713.41;4915388;29;20230;-78
2022/01/14 06:36:16;;;;;;;0.60;0.60;;;-2.20;99.90;;;-2.71;100.00;102719.19;4895679;29;20215;-78
2022/01/14 06:38:44;;;;;;;0.52;0.52;;;-2.10;99.90;;;-2.75;100.00;102717.97;4893576;29;20203;-78
2022/01/14 06:41:12;;;;;;;0.30;0.30;;;-2.10;99.90;;;-2.81;100.00;102704.41;4907032;29;20215;-77
2022/01/14 06:43:40;;;;;;;0.40;0.40;;;-2.20;99.90;;;-2.76;100.00;102715.22;4910541;29;20246;-77
2022/01/14 06:46:08;;;;;;;0.50;0.50;;;-2.10;99.90;;;-2.88;100.00;102702.00;4912532;29;20222;-77
2022/01/14 06:48:36;;;;;;;0.40;0.40;;;-2.10;99.90;;;-2.93;100.00;102704.13;4919628;29;20673;-77
2022/01/14 06:51:04;;;;;;;0.60;0.60;;;-2.20;99.90;;;-2.89;100.00;102713.09;4932470;29;20678;-77
2022/01/14 06:53:32;;;;;;;0.50;0.50;;;-2.20;99.90;;;-2.88;100.00;102714.94;4901031;29;20231;-77
2022/01/14 06:55:59;;;;;;;0.60;0.60;;;-2.20;99.90;;;-3.00;100.00;102706.88;4916593;29;20211;-77
2022/01/14 06:58:27;;;;;;;0.30;0.30;;;-2.30;99.90;;;-3.02;100.00;102703.22;4911404;29;20604;-77
2022/01/14 07:00:55;;;;;;;0.50;0.50;;;-2.30;99.90;;;-2.93;100.00;102709.31;4887232;29;20207;-77
2022/01/14 07:03:23;;;;;;;0.50;0.50;;;-2.30;99.90;;;-2.91;100.00;102712.97;4909220;29;20246;-77
2022/01/14 07:05:51;;;;;;;0.40;0.40;;;-2.30;99.90;;;-3.00;100.00;102700.78;4892976;29;20223;-77
2022/01/14 07:08:19;;;;;;;0.55;0.55;;;-2.30;99.90;;;-3.05;100.00;102705.50;4899603;29;20219;-77
2022/01/14 07:10:47;;;;;;;0.50;0.50;;;-2.40;99.90;;;-3.00;100.00;102705.97;4915554;29;20214;-77
2022/01/14 07:13:15;;;;;;;0.40;0.40;;;-2.40;99.90;;;-3.11;100.00;102697.13;4896109;29;20238;-77
2022/01/14 07:15:43;;;;;;;0.57;0.57;;;-2.40;99.90;;;-3.17;100.00;102691.34;4889592;29;20215;-77
2022/01/14 07:18:11;;;;;;;0.40;0.40;;;-2.50;99.90;;;-3.06;100.00;102700.16;4886277;29;20651;-78
2022/01/14 07:20:39;;;;;;;0.47;0.47;;;-2.50;99.90;;;-3.11;100.00;102699.72;4899748;29;20199;-78
2022/01/14 07:23:07;;;;;;;0.68;0.68;;;-2.50;99.90;;;-3.07;100.00;102703.53;4934867;29;20210;-78
2022/01/14 07:25:37;;;;;;;0.45;0.45;;;-2.40;99.90;;;-2.95;100.00;102721.19;4909035;29;20216;-78
2022/01/14 07:28:06;;;;;;;0.50;0.50;;;-2.40;99.90;;;-2.99;100.00;102720.72;4899914;29;20219;-78
2022/01/14 07:30:33;;;;;;;0.40;0.40;;;-2.40;99.90;;;-2.95;100.00;102720.28;4913396;29;20222;-78
2022/01/14 07:33:02;;;;;;;0.50;0.50;;;-2.40;99.90;;;-2.94;100.00;102717.84;4899841;29;20234;-78
2022/01/14 07:35:30;;;;;;;0.50;0.50;;;-2.40;99.90;;;-2.97;100.00;102717.53;4886222;29;20226;-78
2022/01/14 07:37:58;;;;;;;0.40;0.40;;;-2.30;99.90;;;-2.87;100.00;102733.97;4897524;29;20208;-78
2022/01/14 07:40:26;;;;;;;0.30;0.30;;;-2.30;99.90;;;-2.91;100.00;102731.09;4932981;29;20218;-78
2022/01/14 07:42:53;;;;;;;0.50;0.50;;;-2.30;99.90;;;-2.82;100.00;102743.13;4897945;29;20226;-78
2022/01/14 07:45:22;;;;;;;0.40;0.40;;;-2.30;99.90;;;-2.83;100.00;102744.78;4921181;29;20234;-79
2022/01/14 07:47:50;;;;;;;0.60;0.60;;;-2.30;99.90;;;-2.73;100.00;102754.38;4912136;29;20221;-80
2022/01/14 07:50:23;;;;;;;0.50;0.50;;;-2.20;99.90;;;-2.79;100.00;102753.78;4932311;29;20597;-81
2022/01/14 07:52:51;;;;;;;0.50;0.50;;;-2.20;99.90;;;-2.69;100.00;102769.47;4916679;29;20275;-81
2022/01/14 07:55:19;;;;;;;0.50;0.50;;;-2.20;99.90;;;-2.71;100.00;102769.31;4915694;29;20223;-79
2022/01/14 07:57:47;;;;;;;0.60;0.60;;;-2.10;99.90;;;-2.75;100.00;102768.84;4916944;28;20207;-80
2022/01/14 08:00:16;;;;;;;0.50;0.50;;;-2.20;99.90;;;-2.77;100.00;102768.69;4918550;29;20226;-79
2022/01/14 08:02:44;;;;;;;0.57;0.57;;;-2.20;99.90;;;-2.64;100.00;102776.91;4907120;29;20222;-79
2022/01/14 08:05:14;;;;;;;0.40;0.40;;;-2.20;99.90;;;-2.71;100.00;102781.34;4947153;28;20257;-80
2022/01/14 08:07:47;;;;;;;0.30;0.30;;;-2.10;99.90;;;-2.72;100.00;102785.59;4926565;29;20215;-79
2022/01/14 08:10:15;;;;;;;0.50;0.50;;;-2.10;99.90;;;-2.70;100.00;102784.09;4903835;29;20222;-79
2022/01/14 08:12:44;;;;;;;0.50;0.50;;;-2.10;99.90;;;-2.71;100.00;102782.25;4897170;29;20230;-79
2022/01/14 08:15:12;;;;;;;0.40;0.40;;;-2.10;99.90;;;-2.66;100.00;102790.50;4908866;29;20230;-79
2022/01/14 08:17:40;;;;;;;0.60;0.60;;;-2.10;99.90;;;-2.66;100.00;102790.50;4899057;29;20202;-79
2022/01/14 08:20:09;;;;;;;0.40;0.40;;;-2.10;99.90;;;-2.68;100.00;102799.78;4904958;29;20215;-79
2022/01/14 08:22:37;;;;;;;0.60;0.60;;;-2.10;99.90;;;-2.79;100.00;102784.84;4884502;29;20211;-79
2022/01/14 08:25:06;;;;;;;0.55;0.55;;;-2.10;99.90;;;-2.66;100.00;102796.59;4926132;29;20230;-80
2022/01/14 08:27:34;;;;;;;0.50;0.50;;;-2.10;99.90;;;-2.66;100.00;102794.00;4913757;29;20215;-79
2022/01/14 08:30:06;;;;;;;0.50;0.50;;;-2.10;99.90;;;-2.66;100.00;102787.91;4888318;29;20211;-79
2022/01/14 08:32:34;;;;;;;0.52;0.52;;;-2.10;99.90;;;-2.55;100.00;102801.94;4890028;29;20230;-81
2022/01/14 08:35:02;;;;;;;0.60;0.60;;;-2.10;99.90;;;-2.52;100.00;102808.34;4905100;29;20230;-81
2022/01/14 08:37:30;;;;;;;0.55;0.55;;;-2.00;99.90;;;-2.54;100.00;102812.47;4911764;29;20654;-80
2022/01/14 08:39:58;;;;;;;0.50;0.50;;;-2.00;99.90;;;-2.55;100.00;102804.53;4884107;29;20215;-79
2022/01/14 08:42:26;;;;;;;0.50;0.50;;;-2.00;99.90;;;-2.65;100.00;102801.00;4922868;29;20214;-79
2022/01/14 08:44:54;;;;;;;0.40;0.40;;;-2.00;99.90;;;-2.58;100.00;102794.78;4928813;29;20235;-80
2022/01/14 08:47:22;;;;;;;0.60;0.60;;;-2.00;99.90;;;-2.62;100.00;102800.38;4900424;29;20203;-79
2022/01/14 08:49:50;;;;;;;0.55;0.55;;;-2.00;99.90;;;-2.65;100.00;102800.09;4893596;29;20210;-79
2022/01/14 08:52:18;;;;;;;0.60;0.60;;;-2.00;99.90;;;-2.58;100.00;102805.16;4912509;29;20219;-80
2022/01/14 08:54:46;;;;;;;0.60;0.60;;;-2.00;99.90;;;-2.74;100.00;102788.81;4918714;29;20226;-79
2022/01/14 08:57:14;;;;;;;0.52;0.52;;;-2.00;99.90;;;-2.71;100.00;102797.81;4903245;29;20207;-80
2022/01/14 08:59:42;;;;;;;0.50;0.50;;;-2.10;99.90;;;-2.49;100.00;102807.72;4914642;28;20204;-81
2022/01/14 09:02:10;;;;;;;0.50;0.50;;;-2.00;99.90;;;-2.38;100.00;102820.06;4919571;29;20207;-81
2022/01/14 09:04:38;;;;;;;0.68;0.68;;;-1.90;99.90;;;-2.36;100.00;102810.78;4924756;29;20215;-81
2022/01/14 09:07:07;;;;;;;0.52;0.52;;;-1.80;99.90;;;-2.46;100.00;102802.84;4906945;29;20207;-81
2022/01/14 09:09:35;;;;;;;0.50;0.50;;;-1.80;99.90;;;-2.37;100.00;102811.53;4892676;29;20211;-78
2022/01/14 09:12:04;;;;;;;0.50;0.50;;;-1.80;99.90;;;-2.59;100.00;102786.09;4927073;29;20207;-78
2022/01/14 09:14:32;;;;;;;0.60;0.60;;;-1.80;99.90;;;-2.47;100.00;102804.53;4930751;29;20230;-78
2022/01/14 09:17:02;;;;;;;0.60;0.60;;;-1.80;99.90;;;-2.35;100.00;102815.19;4919914;29;20215;-78
2022/01/14 09:19:31;;;;;;;0.50;0.50;;;-1.80;99.90;;;-2.29;100.00;102821.88;4925618;29;20700;-78
2022/01/14 09:21:59;;;;;;;0.50;0.50;;;-1.70;99.90;;;-2.24;100.00;102834.38;4901543;29;20215;-78
2022/01/14 09:24:46;;;;;;;0.45;0.45;;;-1.70;99.90;;;-2.19;100.00;102839.25;4898444;29;20697;-78
2022/01/14 09:27:15;;;;;;;0.50;0.50;;;-1.60;99.90;;;-2.23;100.00;102833.63;4900820;29;20218;-78
2022/01/14 09:29:44;;;;;;;0.50;0.50;;;-1.60;99.90;;;-2.29;100.00;102834.84;4897038;29;20203;-78
2022/01/14 09:32:12;;;;;;;0.60;0.60;;;-1.60;99.90;;;-2.33;100.00;102824.03;4932968;29;20688;-78
2022/01/14 09:34:40;;;;;;;0.50;0.50;;;-1.60;99.90;;;-2.23;100.00;102826.75;4901330;29;20235;-78
2022/01/14 09:37:08;;;;;;;0.60;0.60;;;-1.60;99.90;;;-2.21;100.00;102827.81;4886383;29;20669;-78
2022/01/14 09:39:36;;;;;;;0.55;0.55;;;-1.60;99.90;;;-2.16;100.00;102830.88;4919889;29;20203;-78
2022/01/14 09:42:06;;;;;;;0.60;0.60;;;-1.60;99.90;;;-2.15;100.00;102825.84;4915025;29;20217;-78
2022/01/14 09:44:34;;;;;;;0.60;0.60;;;-1.50;99.90;;;-2.09;100.00;102836.81;4917157;29;20233;-78
2022/01/14 09:47:03;;;;;;;0.40;0.40;;;-1.50;99.90;;;-2.11;100.00;102832.22;4889311;29;20229;-78
2022/01/14 09:49:31;;;;;;;0.40;0.40;;;-1.50;99.90;;;-2.15;100.00;102828.44;4933249;29;20222;-79
2022/01/14 09:51:59;;;;;;;0.50;0.50;;;-1.50;99.90;;;-2.10;100.00;102839.25;4889322;29;20218;-79
2022/01/14 09:54:27;;;;;;;0.60;0.60;;;-1.50;99.90;;;-2.20;100.00;102828.75;4941589;29;20234;-79
2022/01/14 09:56:55;;;;;;;0.65;0.65;;;-1.50;99.90;;;-2.19;100.00;102831.47;4911920;29;20211;-79
2022/01/14 09:59:23;;;;;;;0.55;0.55;;;-1.60;99.90;;;-2.14;100.00;102829.34;4910990;29;20213;-79
2022/01/14 10:01:51;;;;;;;0.30;0.30;;;-1.60;99.90;;;-1.98;100.00;102841.34;4916495;29;20218;-79
2022/01/14 10:04:22;;;;;;;0.40;0.40;;;-1.50;99.90;;;-1.96;100.00;102847.59;4936212;29;20226;-79
2022/01/14 10:07:00;;;;;;;0.40;0.40;;;-1.50;99.90;;;-2.08;100.00;102840.31;4947535;28;20211;-79
2022/01/14 10:09:36;;;;;;;0.50;0.50;;;-1.50;99.90;;;-2.06;100.00;102842.28;4918862;29;20587;-79
2022/01/14 10:12:16;;;;;;;0.50;0.50;;;-1.50;99.90;;;-2.03;100.00;102833.91;4916288;29;20210;-79
2022/01/14 10:14:58;;;;;;;0.85;0.85;;;-1.50;99.90;;;-1.94;100.00;102846.06;4928810;29;20257;-80
2022/01/14 10:17:39;;;;;;;0.40;0.40;;;-1.40;99.90;;;-1.82;100.00;102848.03;4938551;29;20218;-79
2022/01/14 10:20:10;;;;;;;0.57;0.57;;;-1.40;99.90;;;-1.77;100.00;102841.59;4920986;29;20214;-79
2022/01/14 10:22:48;;;;;;;0.40;0.40;;;-1.30;99.90;;;-1.87;100.00;102837.22;4891099;29;20211;-79
2022/01/14 10:25:20;;;;;;;0.30;0.30;;;-1.20;99.90;;;-1.89;100.00;102835.22;4922037;29;20229;-79
2022/01/14 10:27:54;;;;;;;0.30;0.30;;;-1.30;99.90;;;-1.95;100.00;102822.59;4903877;29;20207;-79
2022/01/14 10:30:32;;;;;;;0.40;0.40;;;-1.30;99.90;;;-1.81;100.00;102830.03;4921177;29;20210;-79
2022/01/14 10:33:05;;;;;;;0.30;0.30;;;-1.30;99.90;;;-1.89;100.00;102811.88;4905179;29;20217;-79
2022/01/14 10:35:42;;;;;;;0.50;0.50;;;-1.30;99.90;;;-1.81;100.00;102824.84;4937202;29;20210;-79
2022/01/14 10:38:15;;;;;;;0.30;0.30;;;-1.30;99.90;;;-1.67;100.00;102828.75;4922090;29;20199;-78